Platinum Information

FAA: PTU - ICAO: PAPM

Platinum (Airport) Location

State Alaska
County Bethel
City Platinum
Platinum (Airport) is 0 miles west of Platinum, AK.
Latitude 59-01-04.1900N
Longitude 161-49-37.8900W
Elevation 18ft

Platinum METARs

METAR PAPM 261156Z AUTO 00000KT 10SM CLR 03/02 A3008 RMK AO2 SLP189 T00330022 10083 20033 58000
Altimeter 30.08"
Temperature 3.3°C (37.9°F)
Wind 0° at 0KT
Clouds Skies are clear.
Visibility 10.0mi
Time observed: 2022-05-26T11:56:00Z

Platinum (Airport) Details

Status Operational
Activation August 1947
Ownership Public
Usage Public
Chart KODIAK
ATC on-site No
Beacon schedule sunset-sunrise
Beacon color clear green

Platinum (Airport) Contacts

Owner ALASKA DOT&PF CENTRAL REGION
Owner address P.O. BOX 196900, ANCHORAGE, AK 99519-6900
Owner phone (907) 269-0749
Manager BOB CARDWELL
Manager address PO BOX 1184, PALMER, AK 99645
Manager phone 907-745-4618

Platinum Radio Frequencies

Platinum (Airport) Radio Frequencies

UNICOM 122.8
Common traffic advisory frequency (CTAF) 122.8